Albion, Michigan
Current Conditions -  °F | °C
As of 1:33 PM on Monday 22 Dec 2014 (Local Time) from KRMY Reporting Station
Overcast Overcast  
Wind Chill: 30°   Ceiling: 5500
Heat Index: 36°   Visibility: 10mi
Dew Point: 29°   Wind: 7mph
Humidity: 75%   Direction: 130°SE
Pressure: 29.91"   Gusts: NA
Location:  42.25°N, 84.75°W
Report Text: KRMY 221833Z AUTO 13006KT 10SM SCT041 BKN055 OVC100 02/M02 A2991 RMK AO2 T00221019
Loading
Personal Weather Stations






























Interactive Weather Map New forecast layout! Learn more

10-Day Weather Forecast

Advertisements
Track Severe Weather on mobile